Time;durP1;ratioP1;P1;durP2;ratioP2;P2;SDS_P1;SDS_P2;PMS_P1;PMS_P2;Temp;Humidity;BMP_temperature;BMP_pressure;BME280_temperature;BME280_humidity;BME280_pressure;Samples;Min_cycle;Max_cycle;Signal;HPM_P1;HPM_P2
2021/05/01 00:02:18;;;;;;;20.52;16.08;;;;;;;6.11;84.75;99060.66;4935511;29;20186;-77
2021/05/01 00:04:45;;;;;;;22.90;15.88;;;;;;;6.12;85.19;99062.38;4950656;28;20238;-75
2021/05/01 00:07:11;;;;;;;19.27;16.10;;;;;;;5.91;86.21;99056.22;4973737;28;20216;-76
2021/05/01 00:09:37;;;;;;;22.50;15.88;;;;;;;5.81;87.09;99057.59;4973996;28;20623;-77
2021/05/01 00:12:04;;;;;;;22.13;16.60;;;;;;;5.83;87.11;99045.91;4973564;28;20210;-76
2021/05/01 00:14:30;;;;;;;19.35;16.65;;;;;;;5.95;86.47;99049.81;4973408;28;20235;-76
2021/05/01 00:16:56;;;;;;;20.48;17.25;;;;;;;6.00;86.30;99045.13;4973501;28;20606;-76
2021/05/01 00:19:23;;;;;;;20.48;17.60;;;;;;;6.10;85.51;99042.84;4973553;28;20199;-76
2021/05/01 00:21:50;;;;;;;24.73;18.27;;;;;;;5.93;85.98;99049.00;4973483;28;20192;-75
2021/05/01 00:24:16;;;;;;;20.50;16.33;;;;;;;5.76;87.06;99035.56;4973202;28;20216;-77
2021/05/01 00:26:42;;;;;;;19.05;16.30;;;;;;;5.98;86.22;99027.44;4973552;28;20228;-76
2021/05/01 00:29:08;;;;;;;23.33;16.75;;;;;;;5.81;86.45;99021.06;4973221;28;20202;-76
2021/05/01 00:31:35;;;;;;;25.92;18.52;;;;;;;6.08;85.58;99027.84;4973625;28;20206;-78
2021/05/01 00:34:01;;;;;;;20.90;16.92;;;;;;;6.19;84.75;99025.50;4973389;28;20235;-75
2021/05/01 00:36:28;;;;;;;24.33;18.10;;;;;;;5.91;85.75;99020.63;4973137;28;20196;-77
2021/05/01 00:38:55;;;;;;;19.13;16.38;;;;;;;5.75;86.78;99012.47;4973869;28;20190;-76
2021/05/01 00:41:21;;;;;;;24.60;18.00;;;;;;;5.74;86.74;99016.06;4973359;28;20208;-76
2021/05/01 00:43:48;;;;;;;23.20;17.75;;;;;;;5.72;86.83;99010.81;4973283;28;20209;-75
2021/05/01 00:46:14;;;;;;;23.17;17.42;;;;;;;5.74;86.83;99014.25;4972593;28;20192;-77
2021/05/01 00:48:40;;;;;;;19.27;16.88;;;;;;;5.63;87.41;99022.81;4973482;28;20600;-76
2021/05/01 00:51:07;;;;;;;23.02;17.90;;;;;;;5.79;86.22;99014.94;4972993;28;20268;-75
2021/05/01 00:53:33;;;;;;;24.20;17.45;;;;;;;5.68;86.77;99003.91;4973233;28;20200;-75
2021/05/01 00:56:00;;;;;;;21.27;18.70;;;;;;;5.54;87.31;99014.34;4972915;28;20287;-77
2021/05/01 00:58:27;;;;;;;24.67;18.38;;;;;;;5.56;87.46;99018.69;4972934;28;20187;-76
2021/05/01 01:01:13;;;;;;;21.55;18.25;;;;;;;5.71;87.23;99019.75;4973453;28;20362;-76
2021/05/01 01:03:40;;;;;;;25.02;17.90;;;;;;;5.68;86.86;99019.06;4973025;28;20609;-76
2021/05/01 01:06:08;;;;;;;23.88;17.80;;;;;;;5.51;87.36;99020.69;4972840;28;20274;-76
2021/05/01 01:08:34;;;;;;;25.17;18.60;;;;;;;5.69;86.84;99015.44;4972993;28;20211;-76
2021/05/01 01:11:01;;;;;;;23.52;17.40;;;;;;;5.59;86.72;99018.53;4973133;28;20188;-77
2021/05/01 01:13:27;;;;;;;23.88;18.10;;;;;;;5.61;86.91;99008.66;4973086;28;20749;-77
2021/05/01 01:15:53;;;;;;;23.45;17.88;;;;;;;5.69;86.75;99004.75;4972925;28;20283;-77
2021/05/01 01:18:19;;;;;;;22.40;17.73;;;;;;;5.47;87.17;99008.41;4972699;28;20227;-77
2021/05/01 01:20:45;;;;;;;23.02;18.52;;;;;;;5.58;86.83;99005.25;4973236;28;20274;-76
2021/05/01 01:23:12;;;;;;;23.50;18.00;;;;;;;5.60;86.62;99004.25;4972854;28;20282;-76
2021/05/01 01:25:39;;;;;;;21.17;17.23;;;;;;;5.46;87.19;99004.03;4972871;28;20242;-77
2021/05/01 01:28:06;;;;;;;24.10;19.00;;;;;;;5.48;87.25;99007.50;4972605;28;20195;-77
2021/05/01 01:30:34;;;;;;;23.25;17.50;;;;;;;5.58;86.59;99021.28;4972913;28;20287;-77
2021/05/01 01:33:03;;;;;;;21.80;17.20;;;;;;;5.61;86.36;99022.00;4972811;28;20232;-77
2021/05/01 01:35:29;;;;;;;22.50;17.77;;;;;;;5.45;87.02;99015.66;4973075;28;20287;-77
2021/05/01 01:37:56;;;;;;;22.50;17.35;;;;;;;5.39;87.71;99014.13;4972749;28;20553;-76
2021/05/01 01:40:24;;;;;;;21.15;15.82;;;;;;;5.29;87.86;99012.84;4973053;28;20621;-77
2021/05/01 01:42:50;;;;;;;21.05;16.08;;;;;;;5.30;88.35;99019.88;4972734;28;20199;-77
2021/05/01 01:45:18;;;;;;;26.52;17.40;;;;;;;5.30;88.19;99024.38;4972123;28;20212;-76
2021/05/01 01:47:44;;;;;;;22.35;15.75;;;;;;;5.29;88.22;99028.84;4971978;28;20218;-76
2021/05/01 01:50:15;;;;;;;19.27;15.98;;;;;;;5.25;88.39;99029.06;4972340;28;20239;-76
2021/05/01 01:52:41;;;;;;;22.95;17.33;;;;;;;5.34;87.97;99032.16;4972860;28;20195;-77
2021/05/01 01:55:09;;;;;;;21.80;17.42;;;;;;;5.37;87.21;99039.16;4972946;28;20279;-76
2021/05/01 01:57:37;;;;;;;22.73;17.85;;;;;;;5.34;86.54;99036.66;4972160;28;20278;-76
2021/05/01 02:00:05;;;;;;;28.05;18.05;;;;;;;5.17;87.54;99032.91;4972825;28;20299;-76
2021/05/01 02:02:31;;;;;;;24.90;17.85;;;;;;;5.13;87.92;99033.13;4972564;28;20694;-77
2021/05/01 02:04:58;;;;;;;22.50;17.35;;;;;;;5.23;87.78;99029.13;4972490;28;20242;-76
2021/05/01 02:07:24;;;;;;;22.48;17.40;;;;;;;5.16;87.76;99025.88;4972683;28;20198;-77
2021/05/01 02:09:50;;;;;;;25.92;19.05;;;;;;;4.96;88.63;99032.09;4975379;28;20230;-77
2021/05/01 02:12:17;;;;;;;23.65;18.23;;;;;;;4.89;88.90;99027.09;4975653;28;20245;-77
2021/05/01 02:14:44;;;;;;;24.45;18.13;;;;;;;4.87;89.19;99031.63;4975469;28;20241;-78
2021/05/01 02:17:10;;;;;;;22.45;18.30;;;;;;;4.96;88.89;99031.22;4975913;28;20280;-77
2021/05/01 02:19:36;;;;;;;22.42;18.08;;;;;;;4.99;88.59;99033.75;4975541;28;20203;-77
2021/05/01 02:22:02;;;;;;;25.30;18.17;;;;;;;4.92;88.43;99021.63;4975933;28;20335;-77
2021/05/01 02:24:28;;;;;;;25.98;18.55;;;;;;;4.83;89.52;99025.56;4975503;28;20333;-76
2021/05/01 02:26:54;;;;;;;23.85;18.25;;;;;;;4.89;89.13;99013.75;4975637;28;20278;-76
2021/05/01 02:29:21;;;;;;;24.70;18.10;;;;;;;4.94;88.69;99011.75;4975663;28;20609;-76
2021/05/01 02:31:48;;;;;;;22.30;17.27;;;;;;;4.98;88.36;99013.34;4975649;28;20207;-77
2021/05/01 02:34:14;;;;;;;20.85;17.35;;;;;;;4.92;87.98;99018.94;4975662;28;20231;-77
2021/05/01 02:36:41;;;;;;;22.73;19.17;;;;;;;4.85;88.23;99015.69;4975651;28;20187;-77
2021/05/01 02:39:08;;;;;;;22.00;17.92;;;;;;;4.68;88.75;99015.53;4975263;28;20207;-78
2021/05/01 02:41:34;;;;;;;22.33;18.23;;;;;;;4.72;89.50;99017.16;4975780;28;20199;-76
2021/05/01 02:44:00;;;;;;;21.02;17.55;;;;;;;4.86;88.88;99013.88;4975131;28;20304;-76
2021/05/01 02:46:26;;;;;;;21.45;17.10;;;;;;;4.83;88.12;99006.88;4975630;28;20601;-76
2021/05/01 02:48:53;;;;;;;27.63;18.95;;;;;;;4.78;88.61;99006.22;4975582;28;20243;-77
2021/05/01 02:51:19;;;;;;;23.77;18.13;;;;;;;4.69;88.77;99003.97;4975262;28;20232;-77
2021/05/01 02:53:45;;;;;;;24.38;19.08;;;;;;;4.46;89.68;99011.16;4974895;28;20202;-76
2021/05/01 02:56:11;;;;;;;25.25;18.95;;;;;;;4.36;90.37;99007.13;4975104;28;20226;-75
2021/05/01 02:58:37;;;;;;;23.83;19.23;;;;;;;4.40;90.44;99006.06;4975108;28;20205;-76
2021/05/01 03:01:04;;;;;;;25.73;18.75;;;;;;;4.50;89.92;99007.44;4975196;28;20637;-77
2021/05/01 03:03:30;;;;;;;27.52;19.90;;;;;;;4.41;90.60;99007.81;4975263;28;20769;-77
2021/05/01 03:05:57;;;;;;;23.10;18.00;;;;;;;4.36;90.52;99005.34;4974621;28;20281;-77
2021/05/01 03:08:23;;;;;;;24.35;19.70;;;;;;;4.20;91.78;99000.72;4975271;28;20230;-76
2021/05/01 03:10:49;;;;;;;29.77;20.05;;;;;;;4.05;92.30;98999.53;4975308;28;20209;-76
2021/05/01 03:13:15;;;;;;;25.75;19.10;;;;;;;4.25;91.82;98996.03;4974731;28;20368;-76
2021/05/01 03:15:41;;;;;;;27.50;18.52;;;;;;;4.23;91.31;98988.16;4975292;28;20204;-76
2021/05/01 03:18:09;;;;;;;24.60;18.05;;;;;;;4.06;91.37;98983.50;4974341;28;20201;-75
2021/05/01 03:20:35;;;;;;;23.95;17.90;;;;;;;4.08;91.59;98978.13;4974875;28;20289;-77
2021/05/01 03:23:06;;;;;;;24.15;17.88;;;;;;;4.05;91.36;98979.13;4974468;28;20289;-76
2021/05/01 03:25:32;;;;;;;25.70;19.13;;;;;;;3.96;91.64;98979.50;4974474;28;20194;-76
2021/05/01 03:27:58;;;;;;;26.17;18.67;;;;;;;4.05;91.39;98978.22;4974660;28;20198;-77
2021/05/01 03:30:25;;;;;;;24.23;19.35;;;;;;;4.11;91.29;98969.97;4974858;28;20231;-77
2021/05/01 03:32:51;;;;;;;25.60;17.42;;;;;;;4.12;91.24;98969.94;4974876;28;20275;-75
2021/05/01 03:35:17;;;;;;;21.98;18.75;;;;;;;4.26;90.47;98972.00;4974296;28;20199;-77
2021/05/01 03:37:43;;;;;;;26.83;19.65;;;;;;;4.42;89.58;98966.03;4974144;28;20280;-77
2021/05/01 03:40:12;;;;;;;22.75;18.60;;;;;;;4.29;89.56;98969.19;4974537;28;20241;-76
2021/05/01 03:42:38;;;;;;;27.40;20.48;;;;;;;4.23;90.22;98971.25;4973995;28;20219;-76
2021/05/01 03:45:06;;;;;;;24.15;19.05;;;;;;;4.47;89.33;98970.22;4974194;28;20308;-76
2021/05/01 03:47:32;;;;;;;22.67;18.83;;;;;;;4.58;88.10;98973.28;4973640;28;20233;-77
2021/05/01 03:49:58;;;;;;;20.63;17.95;;;;;;;4.69;87.47;98964.81;4974315;28;20283;-76
2021/05/01 03:52:25;;;;;;;23.33;19.15;;;;;;;4.39;88.10;98967.91;4974105;28;20655;-76
2021/05/01 03:54:51;;;;;;;23.17;17.88;;;;;;;4.30;89.16;98964.78;4973910;28;20292;-76
2021/05/01 03:57:18;;;;;;;24.55;18.52;;;;;;;4.38;89.01;98966.16;4973771;28;20320;-75
2021/05/01 03:59:44;;;;;;;24.25;18.17;;;;;;;4.39;88.27;98959.91;4974312;28;20196;-76
2021/05/01 04:02:10;;;;;;;25.05;18.85;;;;;;;4.29;88.67;98955.88;4973652;28;20204;-77
2021/05/01 04:04:36;;;;;;;22.42;18.23;;;;;;;4.12;89.12;98958.41;4973844;28;20296;-76
2021/05/01 04:07:02;;;;;;;24.40;18.50;;;;;;;4.04;89.96;98958.72;4973422;28;20206;-77
2021/05/01 04:09:28;;;;;;;22.77;18.95;;;;;;;3.92;91.37;98952.09;4973471;28;20295;-76
2021/05/01 04:11:55;;;;;;;26.00;19.08;;;;;;;4.02;90.93;98952.59;4973553;28;20246;-75
2021/05/01 04:14:22;;;;;;;26.30;20.15;;;;;;;3.96;91.05;98958.19;4974004;28;20258;-77
2021/05/01 04:16:48;;;;;;;28.35;18.63;;;;;;;4.17;90.22;98962.59;4973452;28;20204;-75
2021/05/01 04:19:14;;;;;;;25.23;17.95;;;;;;;4.23;89.40;98965.94;4973298;28;20193;-75
2021/05/01 04:21:40;;;;;;;24.65;18.95;;;;;;;4.26;89.41;98961.34;4973629;28;20643;-76
2021/05/01 04:24:08;;;;;;;24.38;18.95;;;;;;;4.48;88.59;98949.78;4973802;28;20236;-76
2021/05/01 04:26:34;;;;;;;25.83;18.35;;;;;;;4.49;87.78;98946.16;4973542;28;20187;-76
2021/05/01 04:29:00;;;;;;;26.30;19.20;;;;;;;4.19;88.48;98949.22;4973319;28;20254;-78
2021/05/01 04:31:27;;;;;;;23.42;17.55;;;;;;;4.09;89.18;98958.53;4972639;28;20341;-76
2021/05/01 04:33:53;;;;;;;23.45;19.00;;;;;;;4.04;89.40;98957.84;4973413;28;20273;-75
2021/05/01 04:36:19;;;;;;;24.73;18.60;;;;;;;3.92;90.10;98960.09;4973347;28;20210;-77
2021/05/01 04:38:45;;;;;;;28.02;18.85;;;;;;;4.04;89.62;98965.84;4973588;28;20273;-77
2021/05/01 04:41:11;;;;;;;24.15;17.60;;;;;;;4.12;88.96;98969.94;4972953;28;20238;-77
2021/05/01 04:43:39;;;;;;;26.55;19.00;;;;;;;4.18;88.60;98966.13;4973153;28;20624;-76
2021/05/01 04:46:05;;;;;;;27.10;18.45;;;;;;;4.20;87.79;98977.59;4973335;28;20595;-76
2021/05/01 04:48:32;;;;;;;24.13;18.73;;;;;;;4.20;87.83;98972.25;4973657;28;20285;-76
2021/05/01 04:50:58;;;;;;;24.25;18.25;;;;;;;4.35;86.95;98971.63;4973358;28;20234;-76
2021/05/01 04:53:25;;;;;;;25.13;18.27;;;;;;;4.21;87.35;98976.69;4973451;28;20237;-76
2021/05/01 04:55:51;;;;;;;23.65;17.65;;;;;;;4.28;87.35;98977.28;4973247;28;20221;-76
2021/05/01 04:58:17;;;;;;;25.25;19.65;;;;;;;4.48;85.92;98976.44;4973057;28;20294;-76
2021/05/01 05:00:43;;;;;;;25.20;18.42;;;;;;;4.70;85.51;98981.69;4973294;28;20620;-76
2021/05/01 05:03:11;;;;;;;23.80;18.63;;;;;;;4.84;85.05;98992.63;4973179;28;20321;-76
2021/05/01 05:05:38;;;;;;;25.63;18.98;;;;;;;5.03;84.11;98989.13;4972937;28;20227;-77
2021/05/01 05:08:05;;;;;;;29.75;19.17;;;;;;;5.24;82.98;98985.47;4973436;28;20267;-77
2021/05/01 05:10:31;;;;;;;28.30;19.70;;;;;;;5.43;81.72;98991.69;4973238;28;20257;-75
2021/05/01 05:12:57;;;;;;;23.52;18.58;;;;;;;4.84;83.91;98991.72;4972853;28;20198;-76
2021/05/01 05:15:23;;;;;;;23.15;18.60;;;;;;;4.79;84.35;98997.28;4972935;28;20252;-75
2021/05/01 05:17:49;;;;;;;37.65;21.60;;;;;;;4.96;84.08;99002.75;4973081;28;20230;-75
2021/05/01 05:20:15;;;;;;;28.30;19.95;;;;;;;4.67;84.60;98996.03;4972994;28;20231;-76
2021/05/01 05:22:44;;;;;;;28.45;19.10;;;;;;;4.65;85.66;98992.56;4972954;28;20286;-76
2021/05/01 05:25:11;;;;;;;24.65;19.35;;;;;;;4.77;84.95;98986.69;4972835;28;20687;-76
2021/05/01 05:27:39;;;;;;;27.52;19.60;;;;;;;4.65;85.62;98984.56;4972852;28;20204;-76
2021/05/01 05:30:07;;;;;;;25.38;19.58;;;;;;;4.71;85.56;98986.97;4971816;28;20281;-77
2021/05/01 05:32:33;;;;;;;28.02;20.85;;;;;;;4.83;85.48;98976.69;4972804;28;20250;-77
2021/05/01 05:34:59;;;;;;;27.05;20.17;;;;;;;4.78;85.75;98977.75;4973107;28;20614;-76
2021/05/01 05:37:25;;;;;;;28.35;21.05;;;;;;;5.06;84.68;98978.31;4984145;28;20279;-76
2021/05/01 05:39:53;;;;;;;22.75;18.92;;;;;;;5.06;84.78;98986.31;4972775;28;20262;-77
2021/05/01 05:42:20;;;;;;;26.67;19.58;;;;;;;5.29;83.75;98980.81;4973197;28;20198;-77
2021/05/01 05:44:49;;;;;;;25.35;20.45;;;;;;;5.19;83.19;98992.81;4974810;28;20315;-77
2021/05/01 05:47:16;;;;;;;27.08;20.20;;;;;;;5.66;81.97;98995.09;4976867;28;20219;-76
2021/05/01 05:49:43;;;;;;;26.25;19.35;;;;;;;5.52;81.45;98987.72;4978359;28;20324;-77
2021/05/01 05:52:09;;;;;;;31.10;20.00;;;;;;;5.54;81.82;98980.50;4976880;28;20188;-77
2021/05/01 05:54:35;;;;;;;26.92;19.25;;;;;;;5.68;81.21;98979.84;4976386;28;20196;-77
2021/05/01 05:57:03;;;;;;;27.00;20.10;;;;;;;5.39;82.46;98986.56;4976079;28;20267;-76
2021/05/01 05:59:29;;;;;;;26.02;20.10;;;;;;;5.52;82.36;98978.88;4975950;28;20195;-75
2021/05/01 06:01:56;;;;;;;27.70;19.98;;;;;;;5.57;81.78;98975.00;4976291;28;20195;-76
2021/05/01 06:04:29;;;;;;;26.48;19.27;;;;;;;5.62;81.92;98978.31;4975763;28;20230;-77
2021/05/01 06:07:01;;;;;;;25.33;18.33;;;;;;;5.90;81.21;98973.44;4976291;28;20629;-75
2021/05/01 06:09:28;;;;;;;26.05;19.27;;;;;;;6.15;79.97;98968.69;4975700;28;20238;-76
2021/05/01 06:11:58;;;;;;;24.75;19.27;;;;;;;6.65;77.90;98975.91;4975538;28;20200;-76
2021/05/01 06:14:27;;;;;;;23.38;19.70;;;;;;;6.97;76.37;98969.81;4976169;28;20188;-76
2021/05/01 06:16:54;;;;;;;24.98;19.83;;;;;;;7.27;74.82;98973.50;4975686;28;20284;-76
2021/05/01 06:19:20;;;;;;;24.63;20.15;;;;;;;7.26;74.41;98979.81;4976238;28;20623;-76
2021/05/01 06:21:47;;;;;;;24.60;19.20;;;;;;;7.65;73.51;98975.88;4975637;28;20235;-77
2021/05/01 06:24:14;;;;;;;26.15;18.92;;;;;;;7.57;73.38;98974.59;4976015;28;20319;-76
2021/05/01 06:26:40;;;;;;;26.95;20.40;;;;;;;7.56;72.95;98975.53;4994653;28;20195;-77
2021/05/01 06:29:06;;;;;;;29.95;19.92;;;;;;;7.51;73.78;98979.34;4991570;28;20287;-77
2021/05/01 06:31:36;;;;;;;23.88;19.10;;;;;;;7.63;74.01;98987.66;4976018;28;20247;-77
2021/05/01 06:34:03;;;;;;;27.75;20.73;;;;;;;8.21;71.98;98988.81;4975528;28;20211;-76
2021/05/01 06:36:30;;;;;;;28.27;20.70;;;;;;;8.18;71.24;98987.16;4975567;28;20239;-76
2021/05/01 06:39:01;;;;;;;29.67;20.95;;;;;;;8.10;72.13;98990.31;4975657;28;20215;-78
2021/05/01 06:41:37;;;;;;;22.48;19.45;;;;;;;8.16;71.10;98997.13;4975846;28;20286;-76
2021/05/01 06:44:07;;;;;;;25.70;20.55;;;;;;;8.12;71.77;98987.53;4975956;28;20704;-77
2021/05/01 06:46:35;;;;;;;25.90;20.45;;;;;;;8.16;71.95;98997.13;4975274;28;20200;-77
2021/05/01 06:49:08;;;;;;;27.30;20.70;;;;;;;7.75;73.20;98988.75;4975097;28;20204;-77
2021/05/01 06:51:38;;;;;;;30.38;20.55;;;;;;;8.11;72.40;98985.81;4975205;28;20228;-78
2021/05/01 06:54:07;;;;;;;25.13;20.50;;;;;;;8.60;70.61;98982.94;4974721;28;20272;-77
2021/05/01 06:56:33;;;;;;;25.83;21.27;;;;;;;8.81;69.69;98983.47;4975149;28;20315;-76
2021/05/01 06:59:02;;;;;;;27.25;19.67;;;;;;;9.16;68.82;98972.41;4975319;28;20574;-77
2021/05/01 07:01:28;;;;;;;26.15;20.10;;;;;;;9.05;68.97;98966.84;4975413;28;20648;-77
2021/05/01 07:03:56;;;;;;;26.33;21.40;;;;;;;9.40;67.82;98962.78;4974535;28;20221;-76
2021/05/01 07:06:23;;;;;;;25.52;21.02;;;;;;;9.82;66.08;98971.75;4975441;28;20206;-78
2021/05/01 07:08:50;;;;;;;27.35;21.75;;;;;;;10.05;65.20;98972.06;4974552;28;20200;-78
2021/05/01 07:11:16;;;;;;;28.50;21.27;;;;;;;10.13;64.69;98975.13;4974825;28;20257;-77
2021/05/01 07:13:42;;;;;;;29.77;22.45;;;;;;;10.40;63.85;98967.06;4974572;28;20322;-78
2021/05/01 07:16:09;;;;;;;26.98;20.48;;;;;;;10.59;62.84;98972.06;4974587;28;20208;-77
2021/05/01 07:18:37;;;;;;;24.98;20.48;;;;;;;10.73;62.50;98981.03;4974568;28;20202;-76
2021/05/01 07:21:04;;;;;;;28.45;21.73;;;;;;;10.88;61.89;98974.59;4975259;28;20854;-76
2021/05/01 07:23:31;;;;;;;27.55;21.20;;;;;;;10.97;61.64;98963.16;4974695;28;20938;-77
2021/05/01 07:25:57;;;;;;;26.17;21.52;;;;;;;11.16;61.13;98965.41;4974447;28;20307;-77
2021/05/01 07:28:25;;;;;;;26.30;21.75;;;;;;;11.29;60.32;98964.56;4974590;28;20203;-77
2021/05/01 07:30:54;;;;;;;24.95;21.83;;;;;;;11.52;59.29;98969.16;4974613;28;20196;-76
2021/05/01 07:33:24;;;;;;;25.20;21.55;;;;;;;11.67;58.92;98972.59;4974532;28;20525;-77
2021/05/01 07:35:55;;;;;;;28.20;22.67;;;;;;;11.82;58.63;98966.06;4974053;28;20196;-76
2021/05/01 07:38:22;;;;;;;25.98;22.23;;;;;;;11.75;58.53;98962.09;4974298;28;20227;-78
2021/05/01 07:40:51;;;;;;;25.52;21.10;;;;;;;11.80;58.47;98957.25;4973951;28;20200;-77
2021/05/01 07:43:18;;;;;;;27.55;21.92;;;;;;;12.06;57.50;98955.34;4974225;28;20681;-77
2021/05/01 07:45:46;;;;;;;28.17;22.50;;;;;;;12.33;56.62;98959.66;4974204;28;20203;-78
2021/05/01 07:48:14;;;;;;;26.45;22.25;;;;;;;12.62;55.86;98954.72;4973936;28;20200;-77
2021/05/01 07:50:41;;;;;;;26.73;22.50;;;;;;;12.76;56.14;98958.22;4973982;28;20609;-78
2021/05/01 07:53:09;;;;;;;28.95;23.58;;;;;;;12.96;55.45;98957.50;4974253;28;20552;-78
2021/05/01 07:55:35;;;;;;;26.00;22.15;;;;;;;13.04;54.69;98952.34;4974169;28;20242;-77
2021/05/01 07:58:02;;;;;;;24.90;21.42;;;;;;;13.24;53.98;98961.59;4974031;28;20283;-76
2021/05/01 08:00:28;;;;;;;27.73;22.60;;;;;;;13.15;54.21;98963.19;4973091;28;20218;-76
2021/05/01 08:02:54;;;;;;;28.08;23.73;;;;;;;12.93;54.78;98960.44;4973430;28;20234;-76
2021/05/01 08:05:21;;;;;;;30.33;25.25;;;;;;;13.07;53.52;98968.34;4972900;28;20232;-76
2021/05/01 08:07:48;;;;;;;33.33;26.10;;;;;;;12.61;55.11;98984.53;4973416;28;20197;-75
2021/05/01 08:10:14;;;;;;;31.42;25.17;;;;;;;12.57;56.00;98983.91;4974201;28;20203;-77
2021/05/01 08:12:41;;;;;;;33.38;26.52;;;;;;;12.28;56.21;98978.88;4973707;28;20192;-76
2021/05/01 08:15:09;;;;;;;35.38;27.50;;;;;;;12.28;54.95;98978.88;4973696;28;20199;-77
2021/05/01 08:17:36;;;;;;;35.03;25.95;;;;;;;12.21;55.49;98971.34;4973646;28;20622;-77
2021/05/01 08:20:04;;;;;;;31.98;24.90;;;;;;;12.33;55.31;98980.38;4973867;28;20650;-77
2021/05/01 08:22:30;;;;;;;33.65;26.55;;;;;;;12.58;54.75;98980.25;4973364;28;20694;-76
2021/05/01 08:24:57;;;;;;;33.20;26.10;;;;;;;12.61;54.16;98981.84;4973521;28;20229;-77
2021/05/01 08:27:23;;;;;;;27.92;23.77;;;;;;;12.59;54.07;98991.91;4973421;28;20224;-76
2021/05/01 08:29:49;;;;;;;35.97;25.75;;;;;;;12.29;54.83;98995.94;4973248;28;20295;-76
2021/05/01 08:32:17;;;;;;;31.52;25.33;;;;;;;12.29;55.15;98996.78;4973040;28;20188;-77
2021/05/01 08:34:43;;;;;;;29.52;24.08;;;;;;;11.76;56.30;98989.91;4982564;28;20199;-77
2021/05/01 08:37:10;;;;;;;37.03;24.70;;;;;;;11.86;56.49;98985.59;4992436;28;20230;-76
2021/05/01 08:39:36;;;;;;;31.33;24.80;;;;;;;11.87;56.59;98987.28;4989446;28;20207;-76
2021/05/01 08:42:02;;;;;;;33.10;24.75;;;;;;;12.31;54.85;98994.84;4973335;28;20188;-76
2021/05/01 08:44:29;;;;;;;29.60;23.02;;;;;;;12.12;55.54;98982.81;4972645;28;20319;-77
2021/05/01 08:46:55;;;;;;;31.17;24.83;;;;;;;12.34;54.39;98987.50;4973187;28;20211;-75
2021/05/01 08:49:22;;;;;;;29.25;23.25;;;;;;;12.71;53.36;98990.97;4972624;28;20211;-76
2021/05/01 08:51:48;;;;;;;36.15;26.08;;;;;;;12.43;53.67;98992.19;4972616;28;20283;-77
2021/05/01 08:54:15;;;;;;;30.67;23.63;;;;;;;12.36;53.37;98990.94;4972811;28;20220;-76
2021/05/01 08:56:42;;;;;;;28.52;23.52;;;;;;;12.45;52.83;98995.66;4972858;28;20196;-75
2021/05/01 08:59:09;;;;;;;34.70;24.25;;;;;;;12.72;52.39;98996.25;4972919;28;20184;-76
2021/05/01 09:01:36;;;;;;;28.27;24.17;;;;;;;12.38;53.42;98997.94;4972922;28;20203;-77
2021/05/01 09:04:04;;;;;;;34.35;25.13;;;;;;;12.68;52.73;98991.19;4972777;28;20212;-75
2021/05/01 09:06:33;;;;;;;31.17;23.63;;;;;;;12.98;51.99;98969.06;4973218;28;20196;-76
2021/05/01 09:09:00;;;;;;;31.75;24.40;;;;;;;12.84;52.15;98978.22;4972603;28;20212;-76
2021/05/01 09:11:34;;;;;;;31.45;25.15;;;;;;;13.09;51.77;98970.91;4975835;28;20656;-76
2021/05/01 09:14:13;;;;;;;34.65;25.27;;;;;;;13.06;52.04;98968.47;4992593;28;20274;-76
2021/05/01 09:16:40;;;;;;;30.25;24.52;;;;;;;13.34;51.54;98964.44;4992297;28;20621;-76
2021/05/01 09:19:07;;;;;;;33.40;24.58;;;;;;;13.78;50.54;98970.84;4986712;28;20224;-76
2021/05/01 09:21:33;;;;;;;32.28;24.88;;;;;;;13.78;50.04;98968.13;4982389;28;20199;-77
2021/05/01 09:24:00;;;;;;;34.55;25.35;;;;;;;13.66;50.54;98970.00;4976850;28;20284;-77
2021/05/01 09:26:37;;;;;;;30.73;24.23;;;;;;;13.61;50.51;98972.19;4976536;28;20291;-76
2021/05/01 09:29:05;;;;;;;30.90;23.83;;;;;;;13.79;50.64;98977.97;4976793;28;20657;-77
2021/05/01 09:31:41;;;;;;;31.10;24.98;;;;;;;13.90;50.19;98975.25;4976893;28;20196;-77
2021/05/01 09:34:08;;;;;;;32.85;25.30;;;;;;;13.79;50.17;98977.97;4976828;28;20659;-76
2021/05/01 09:36:36;;;;;;;28.45;23.38;;;;;;;13.74;50.45;98974.78;4976245;28;20695;-76
2021/05/01 09:39:10;;;;;;;29.30;25.20;;;;;;;13.90;50.33;98975.25;4976134;28;20191;-77
2021/05/01 09:41:38;;;;;;;31.30;24.55;;;;;;;13.75;50.67;98974.66;4976681;28;20616;-76
2021/05/01 09:44:07;;;;;;;28.80;23.40;;;;;;;13.92;49.99;98973.28;4976278;28;20392;-76
2021/05/01 09:46:43;;;;;;;27.30;24.30;;;;;;;14.11;49.55;98974.47;4976709;28;20539;-76
2021/05/01 09:49:12;;;;;;;31.13;24.23;;;;;;;14.27;48.68;98980.34;4975863;28;20192;-76
2021/05/01 09:51:51;;;;;;;31.17;24.40;;;;;;;13.78;50.16;98968.13;4976156;28;20673;-76
2021/05/01 09:54:19;;;;;;;32.40;24.95;;;;;;;13.55;50.91;98973.56;4975735;28;20194;-76
2021/05/01 09:56:47;;;;;;;32.55;29.05;;;;;;;13.77;50.43;98964.59;4975520;28;20558;-77
2021/05/01 09:59:14;;;;;;;32.00;24.60;;;;;;;14.33;48.58;98966.28;4976208;28;20649;-76
2021/05/01 10:01:40;;;;;;;30.00;24.58;;;;;;;14.46;48.24;98967.97;4984068;28;20634;-76
2021/05/01 10:04:15;;;;;;;28.75;23.58;;;;;;;15.12;46.48;98965.91;4975339;28;20233;-76
2021/05/01 10:06:46;;;;;;;28.75;23.88;;;;;;;15.21;46.27;98973.25;4975946;28;20209;-76
2021/05/01 10:09:20;;;;;;;30.70;23.30;;;;;;;15.04;46.60;98981.13;4975750;28;20300;-77
2021/05/01 10:11:47;;;;;;;30.15;22.73;;;;;;;14.98;46.34;98977.97;4975633;28;20230;-76
2021/05/01 10:14:16;;;;;;;28.27;22.30;;;;;;;15.26;45.84;98963.84;4987169;28;20201;-78
2021/05/01 10:16:54;;;;;;;31.88;23.35;;;;;;;15.30;45.43;98968.03;4995150;28;20205;-77
2021/05/01 10:19:20;;;;;;;26.10;22.02;;;;;;;15.52;45.24;98970.56;4995059;28;20206;-77
2021/05/01 10:21:47;;;;;;;29.05;22.88;;;;;;;15.66;44.00;98963.03;4995397;28;20234;-76
2021/05/01 10:24:15;;;;;;;29.05;22.48;;;;;;;15.94;43.90;98964.16;4990944;28;20277;-76
2021/05/01 10:26:46;;;;;;;29.17;23.15;;;;;;;15.77;44.25;98969.25;4975874;28;20199;-77
2021/05/01 10:29:30;;;;;;;25.88;22.08;;;;;;;15.61;44.50;98966.16;4974205;28;20196;-77
2021/05/01 10:31:58;;;;;;;27.42;23.33;;;;;;;15.90;43.88;98971.75;4975176;28;20184;-76
2021/05/01 10:34:25;;;;;;;27.38;22.42;;;;;;;15.91;43.45;98975.31;4975177;28;20192;-76
2021/05/01 10:36:54;;;;;;;29.38;22.60;;;;;;;15.67;44.05;98972.88;4975812;28;20315;-76
2021/05/01 10:39:22;;;;;;;31.27;23.65;;;;;;;15.75;43.88;98964.97;4974780;28;20203;-77
2021/05/01 10:41:58;;;;;;;25.13;22.33;;;;;;;15.41;43.85;98963.34;4975237;28;20217;-78
2021/05/01 10:44:25;;;;;;;27.02;22.08;;;;;;;15.41;44.50;98976.06;4975147;28;20223;-75
2021/05/01 10:47:06;;;;;;;27.90;22.88;;;;;;;15.68;44.15;98963.78;4975433;28;20247;-77
2021/05/01 10:49:34;;;;;;;27.13;21.98;;;;;;;15.87;43.48;98971.13;4975057;28;20195;-76
2021/05/01 10:52:13;;;;;;;27.67;22.88;;;;;;;16.26;42.50;98970.25;4975501;28;20563;-77
2021/05/01 10:54:57;;;;;;;29.08;22.70;;;;;;;16.07;42.43;98969.34;4974342;28;20226;-77
2021/05/01 10:57:23;;;;;;;26.10;21.65;;;;;;;15.96;41.98;98960.31;4975189;28;20187;-76
2021/05/01 10:59:57;;;;;;;24.27;21.13;;;;;;;15.80;42.66;98959.97;4975226;28;20233;-77
2021/05/01 11:02:32;;;;;;;25.45;21.73;;;;;;;15.89;41.78;98966.44;4975133;28;20242;-77
2021/05/01 11:05:00;;;;;;;25.95;21.52;;;;;;;15.61;42.94;98948.03;4974885;28;20219;-77
2021/05/01 11:07:38;;;;;;;24.15;21.30;;;;;;;16.04;42.21;98952.34;4975010;28;20188;-77
2021/05/01 11:10:08;;;;;;;26.05;21.25;;;;;;;16.58;40.73;98939.22;4974815;28;20227;-77
2021/05/01 11:12:36;;;;;;;23.58;19.63;;;;;;;16.52;40.54;98942.50;4975082;28;20258;-76
2021/05/01 11:15:06;;;;;;;27.67;21.73;;;;;;;16.31;41.24;98939.94;4987839;28;20286;-76
2021/05/01 11:17:37;;;;;;;23.35;19.48;;;;;;;16.53;40.19;98932.50;4974370;28;20656;-76
2021/05/01 11:20:06;;;;;;;22.50;19.35;;;;;;;16.17;40.37;98932.22;4974623;28;20196;-77
2021/05/01 11:22:34;;;;;;;22.75;19.25;;;;;;;16.14;40.86;98927.03;4974525;28;20208;-77
2021/05/01 11:25:04;;;;;;;31.55;25.90;;;;;;;16.57;40.16;98918.47;4974068;28;21016;-77